메인 페이지
METAR-TAF:

METAR-TAF

공항 :

라 아우로라 국제공항

과테말라, 과테말라

위도: 14-35N, 경도: 090-31W, 고도: 1489m

현재 날씨관측

예보는 57분 전, 17:00시(UTC)에 발표되었습니다.
10kt
온도 24°C
습도 57%
기압 1025 hPa
시정 10km 이상
고도 1800ft 상공 구름 많음
고도 20000ft 상공 구름 조금

METAR: MGGT 251700Z 36010KT 9999 BKN018 24/15 Q1025 A3027 FEW200

시각: 11:57 (17:57 UTC)

예보

예보 대상 시간: 25일 18시부터 26일 18시까지 (UTC)
16kt
시정 10km 이상
고도 2000ft 상공 구름 보통
확률 40%
25일 20시부터 25일 24시까지 (UTC)
북동10kt
고도 2000ft 상공 구름 보통, 타워링 적운.
전환 중
26일 00시부터 26일 02시까지 (UTC)
12kt
고도 1600ft 상공 구름 보통
전환 중
26일 06시부터 26일 08시까지 (UTC)
고도 1200ft 상공 구름 보통
전환 중
26일 14시부터 26일 16시까지 (UTC)
여러 방향의 바람 3kt
고도 1800ft 상공 구름 보통

TAF: MGGT 2518/2618 36016KT 9999 SCT020 TX26/2520Z TN15/2612Z PROB40 2520/2524 04010KT SCT020TCU BECMG 2600/2602 36012KT SCT016 BECMG 2606/2608 SCT012 BECMG 2614/2616 VRB03KT SCT018

4,000개 이상의 공항 관측 자료 및 예보 (METAR 및 TAF 보고).

지도상에서 검색 가능한 기상관측소가 노란 점과 빨간 점으로 표시되어 있습니다.

기상관측소 명을 보려면 표시 위로 마우스를 이동하세요.

날씨 관측과 예보를 보려면 클릭하세요.

지도 변경 : 확대하려면 엑스 표시가 있는 녹색 버튼, 축소하려면 빼기 표시가 있는 녹색 버튼, 다음 페이지의 지도를 보려면 녹색 화살표를 클릭하세요.


METAR-TAF: